Portada
METAR-TAF:

METAR-TAF

Aeroports :

Bermudes, Bermudes

latitud: 32-22N, longitud: 064-41W, altitud: 6 m

Observació

L'informe es va fer fa 57 minuts, a les 18:55 UTC
Vent 16 kt del Sud/Sud-Oest
Temperatura 29°C
Humitat 74%
Pressió 1021 hPa
Visibilitat 10 km o més
Escasses núvols a una alçada de 2100 ft, Cumulonimbus.
Núvols disperses a una alçada de 18000 ft
Cel ennuvolat a una alçada de 30000 ft

METAR: TXKF 181855Z 21016KT 9999 FEW021CB SCT180 BKN300 29/24 Q1021 RMK CB DSNT NE

Hora: 16:52 (19:52 UTC)

Pronòstic

L'informe es va fer fa 2 hores i 21 minuts, a les 17:31 UTC
Pronòstic vàlid del 18 a les 18 UTC al 19 a les 18 UTC
Vent 12 kt del Sud/Sud-Oest
Visibilitat 10 km o més
Escasses núvols a una alçada de 2000 ft
Núvols disperses a una alçada de 18000 ft
Cel ennuvolat a una alçada de 30000 ft

TAF: TXKF 181731Z 1818/1918 20012KT 9999 FEW020 SCT180 BKN300

Observacions i pronòstics meteorològics de més de 4000 aeroports (METAR i TAF).

Les estacions disponibles són els punts grocs i vermells al mapa.

Posi el ratolí al punt desitjat per veure el nom de l'estació.

Feu clic per veure les observacions i els pronòstics meteorològics.

Per canviar el mapa: feu clic els botons verds amb una creu de color negre per apropar; al botó verd amb un guió per allunyar la imatge; o en les fletxes verdes per a mapes adjacents.


METAR-TAF: